createdAt,value
2022-08-05T00:00:30.662Z,25.26
2022-08-05T00:01:29.698Z,25.24
2022-08-05T00:02:30.694Z,25.21
2022-08-05T00:03:29.594Z,25.16
2022-08-05T00:04:29.611Z,25.14
2022-08-05T00:06:05.122Z,25.11
2022-08-05T00:06:33.193Z,25.03
2022-08-05T00:08:00.232Z,24.97
2022-08-05T00:08:34.642Z,24.89
2022-08-05T00:09:29.536Z,24.84
2022-08-05T00:10:29.616Z,24.62
2022-08-05T00:11:34.543Z,24.48
2022-08-05T00:12:30.502Z,24.40
2022-08-05T00:13:39.024Z,24.31
2022-08-05T00:14:31.542Z,24.24
2022-08-05T00:15:55.227Z,24.10
2022-08-05T00:16:36.199Z,24.06
2022-08-05T00:17:30.750Z,23.95
2022-08-05T00:18:29.454Z,23.89
2022-08-05T00:19:33.295Z,23.86
2022-08-05T00:20:29.398Z,23.79
2022-08-05T00:21:30.711Z,23.76
2022-08-05T00:22:29.366Z,23.73
2022-08-05T00:23:44.812Z,23.71
2022-08-05T00:24:31.193Z,23.70
2022-08-05T00:25:45.619Z,23.67
2022-08-05T00:26:30.296Z,23.66
2022-08-05T00:27:36.482Z,23.63
2022-08-05T00:28:30.286Z,23.56
2022-08-05T00:29:37.640Z,23.54
2022-08-05T00:30:32.019Z,23.55
2022-08-05T00:31:41.373Z,23.54
2022-08-05T00:32:30.255Z,23.49
2022-08-05T00:34:53.875Z,23.42
2022-08-05T00:34:56.488Z,23.36
2022-08-05T00:35:33.147Z,23.33
2022-08-05T00:37:09.764Z,23.28
2022-08-05T00:37:51.002Z,23.26
2022-08-05T00:38:33.936Z,23.23
2022-08-05T00:39:29.192Z,23.18
2022-08-05T00:40:30.312Z,23.21
2022-08-05T00:41:29.147Z,23.18
2022-08-05T00:42:31.603Z,23.20
2022-08-05T00:43:29.089Z,23.23
2022-08-05T00:44:30.841Z,23.26
2022-08-05T00:45:39.009Z,23.29
2022-08-05T00:46:42.698Z,23.34
2022-08-05T00:47:53.160Z,23.33
2022-08-05T00:48:31.609Z,23.34
2022-08-05T00:49:32.559Z,23.33
2022-08-05T00:50:29.009Z,23.33
2022-08-05T00:51:51.640Z,23.36
2022-08-05T00:52:29.968Z,23.34
2022-08-05T00:54:01.431Z,23.34
2022-08-05T00:54:30.300Z,23.34
2022-08-05T00:55:42.202Z,23.36
2022-08-05T00:56:29.921Z,23.33
2022-08-05T00:57:38.143Z,23.32
2022-08-05T00:58:29.899Z,23.28
2022-08-05T00:59:44.147Z,23.26
2022-08-05T01:00:29.890Z,23.25
2022-08-05T01:01:43.008Z,23.25
2022-08-05T01:02:29.833Z,23.23
2022-08-05T01:03:31.119Z,23.21
2022-08-05T01:04:29.939Z,23.14
2022-08-05T01:05:28.821Z,23.10
2022-08-05T01:06:32.543Z,23.07
2022-08-05T01:07:31.610Z,23.04
2022-08-05T01:08:42.110Z,22.98
2022-08-05T01:09:30.521Z,22.95
2022-08-05T01:10:28.724Z,22.92
2022-08-05T01:11:33.446Z,22.88
2022-08-05T01:12:29.979Z,22.89
2022-08-05T01:13:58.861Z,22.89
2022-08-05T01:14:29.695Z,22.86
2022-08-05T01:15:36.382Z,22.86
2022-08-05T01:16:29.644Z,22.91
2022-08-05T01:17:28.637Z,22.92
2022-08-05T01:18:28.615Z,22.88
2022-08-05T01:19:46.238Z,22.77
2022-08-05T01:20:29.646Z,22.74
2022-08-05T01:21:38.139Z,22.76
2022-08-05T01:22:29.568Z,22.78
2022-08-05T01:23:34.835Z,22.81
2022-08-05T01:24:30.256Z,22.84
2022-08-05T01:25:40.132Z,22.92
2022-08-05T01:26:29.546Z,22.92
2022-08-05T01:27:28.570Z,22.96
2022-08-05T01:28:28.489Z,22.98
2022-08-05T01:29:28.467Z,23.02
2022-08-05T01:30:33.729Z,23.01
2022-08-05T01:31:29.466Z,22.98
2022-08-05T01:32:28.436Z,22.96
2022-08-05T01:33:28.407Z,22.96
2022-08-05T01:34:29.428Z,22.98
2022-08-05T01:35:50.988Z,22.98
2022-08-05T01:36:29.424Z,22.98
2022-08-05T01:37:28.597Z,22.93
2022-08-05T01:38:30.055Z,22.91
2022-08-05T01:39:46.684Z,22.91
2022-08-05T01:40:29.348Z,22.88
2022-08-05T01:41:28.310Z,22.83
2022-08-05T01:42:28.308Z,22.81
2022-08-05T01:43:28.290Z,22.78
2022-08-05T01:44:34.195Z,22.74
2022-08-05T01:45:34.976Z,22.71
2022-08-05T01:46:41.926Z,22.65
2022-08-05T01:47:38.679Z,22.67
2022-08-05T01:48:29.230Z,22.67
2022-08-05T01:50:02.296Z,22.68
2022-08-05T01:50:29.658Z,22.70
2022-08-05T01:51:29.410Z,22.70
2022-08-05T01:52:28.170Z,22.71
2022-08-05T01:53:58.047Z,22.70
2022-08-05T01:54:29.159Z,22.73
2022-08-05T01:55:28.130Z,22.74
2022-08-05T01:58:12.156Z,22.77
2022-08-05T01:58:12.156Z,22.77
2022-08-05T01:58:40.416Z,22.74
2022-08-05T01:59:29.091Z,22.70
2022-08-05T02:00:30.541Z,22.70
2022-08-05T02:01:28.074Z,22.70
2022-08-05T02:02:28.699Z,22.70
2022-08-05T02:03:31.830Z,22.65
2022-08-05T02:04:29.012Z,22.65
2022-08-05T02:05:28.725Z,22.68
2022-08-05T02:06:37.284Z,22.71
2022-08-05T02:07:30.476Z,22.73
2022-08-05T02:08:30.910Z,22.76
2022-08-05T02:09:28.156Z,22.76
2022-08-05T02:10:28.690Z,22.78
2022-08-05T02:11:33.313Z,22.77
2022-08-05T02:12:28.914Z,22.76
2022-08-05T02:13:27.893Z,22.74
2022-08-05T02:14:28.880Z,22.71
2022-08-05T02:15:33.510Z,22.68
2022-08-05T02:16:28.847Z,22.67
2022-08-05T02:18:28.317Z,22.56
2022-08-05T02:18:34.494Z,22.55
2022-08-05T02:19:28.818Z,22.52
2022-08-05T02:20:28.814Z,22.52
2022-08-05T02:21:27.784Z,22.51
2022-08-05T02:22:27.775Z,22.46
2022-08-05T02:23:27.774Z,22.43
2022-08-05T02:24:27.747Z,22.43
2022-08-05T02:25:33.079Z,22.38
2022-08-05T02:26:28.724Z,22.37
2022-08-05T02:27:30.123Z,22.31
2022-08-05T02:28:32.963Z,22.28
2022-08-05T02:29:59.674Z,22.25
2022-08-05T02:30:28.685Z,22.26
2022-08-05T02:31:28.341Z,22.28
2022-08-05T02:32:29.458Z,22.28
2022-08-05T02:33:38.472Z,22.26
2022-08-05T02:34:28.617Z,22.25
2022-08-05T02:35:33.345Z,22.25
2022-08-05T02:36:31.375Z,22.22
2022-08-05T02:37:27.576Z,22.18
2022-08-05T02:38:27.566Z,22.16
2022-08-05T02:39:28.602Z,22.15
2022-08-05T02:40:27.670Z,22.16
2022-08-05T02:41:28.583Z,22.19
2022-08-05T02:42:31.935Z,22.18
2022-08-05T02:43:28.487Z,22.15
2022-08-05T02:44:27.487Z,22.18
2022-08-05T02:45:28.539Z,22.19
2022-08-05T02:46:28.475Z,22.26
2022-08-05T02:47:36.541Z,22.31
2022-08-05T02:48:29.112Z,22.36
2022-08-05T02:49:27.408Z,22.41
2022-08-05T02:50:28.407Z,22.44
2022-08-05T02:51:28.403Z,22.49
2022-08-05T02:52:30.491Z,22.53
2022-08-05T02:53:27.362Z,22.56
2022-08-05T02:54:35.602Z,22.61
2022-08-05T02:55:54.046Z,22.63
2022-08-05T02:56:28.347Z,22.67
2022-08-05T02:58:09.384Z,22.70
2022-08-05T02:58:28.959Z,22.71
2022-08-05T02:59:27.774Z,22.68
2022-08-05T03:00:27.269Z,22.65
2022-08-05T03:01:27.387Z,22.62
2022-08-05T03:02:27.672Z,22.62
2022-08-05T03:03:27.231Z,22.61
2022-08-05T03:04:28.220Z,22.59
2022-08-05T03:06:54.363Z,22.55
2022-08-05T03:06:56.096Z,22.56
2022-08-05T03:08:00.736Z,22.53
2022-08-05T03:08:29.820Z,22.52
2022-08-05T03:09:38.336Z,22.51
2022-08-05T03:10:28.141Z,22.46
2022-08-05T03:11:57.217Z,22.46
2022-08-05T03:12:28.119Z,22.44
2022-08-05T03:13:27.710Z,22.38
2022-08-05T03:14:28.092Z,22.28
2022-08-05T03:15:27.072Z,22.18
2022-08-05T03:16:27.089Z,22.08
2022-08-05T03:17:27.054Z,22.04
2022-08-05T03:18:30.100Z,22.01
2022-08-05T03:19:33.834Z,22.04
2022-08-05T03:20:28.006Z,22.12
2022-08-05T03:21:28.763Z,22.14
2022-08-05T03:22:32.599Z,22.07
2022-08-05T03:23:27.952Z,22.04
2022-08-05T03:24:30.028Z,22.01
2022-08-05T03:25:33.821Z,21.99
2022-08-05T03:26:31.769Z,21.97
2022-08-05T03:27:29.518Z,21.96
2022-08-05T03:28:27.903Z,21.99
2022-08-05T03:29:45.459Z,21.88
2022-08-05T03:30:30.236Z,21.84
2022-08-05T03:31:57.242Z,21.85
2022-08-05T03:32:30.746Z,21.89
2022-08-05T03:33:42.207Z,21.88
2022-08-05T03:34:27.816Z,21.88
2022-08-05T03:35:26.814Z,21.88
2022-08-05T03:36:30.448Z,21.85
2022-08-05T03:37:27.015Z,21.84
2022-08-05T03:38:32.868Z,21.83
2022-08-05T03:39:28.020Z,21.85
2022-08-05T03:40:31.983Z,21.88
2022-08-05T03:41:33.240Z,21.91
2022-08-05T03:42:29.145Z,21.89
2022-08-05T03:44:09.830Z,21.83
2022-08-05T03:44:29.075Z,21.84
2022-08-05T03:45:26.688Z,21.88
2022-08-05T03:46:30.024Z,21.89
2022-08-05T03:47:30.433Z,21.91
2022-08-05T03:48:28.938Z,21.99
2022-08-05T03:49:31.117Z,22.01
2022-08-05T03:50:27.615Z,22.01
2022-08-05T03:52:36.908Z,22.00
2022-08-05T03:52:48.553Z,22.00
2022-08-05T03:55:52.915Z,22.01
2022-08-05T03:55:53.477Z,22.06
2022-08-05T03:56:09.904Z,22.06
2022-08-05T03:56:31.908Z,22.01
2022-08-05T03:57:41.855Z,22.03
2022-08-05T03:58:29.058Z,22.01
2022-08-05T03:59:26.490Z,22.03
2022-08-05T04:00:26.478Z,22.07
2022-08-05T04:01:26.501Z,22.06
2022-08-05T04:02:37.771Z,22.06
2022-08-05T04:03:28.845Z,22.04
2022-08-05T04:04:26.629Z,22.01
2022-08-05T04:05:27.986Z,22.04
2022-08-05T04:06:27.408Z,22.08
2022-08-05T04:07:26.400Z,22.12
2022-08-05T04:08:35.926Z,22.14
2022-08-05T04:09:27.353Z,22.12
2022-08-05T04:10:27.704Z,22.08
2022-08-05T04:11:50.846Z,22.07
2022-08-05T04:12:27.322Z,22.07
2022-08-05T04:13:26.331Z,22.10
2022-08-05T04:14:29.994Z,22.10
2022-08-05T04:15:26.281Z,22.14
2022-08-05T04:16:32.253Z,22.08
2022-08-05T04:17:55.726Z,22.06
2022-08-05T04:18:27.262Z,22.06
2022-08-05T04:19:26.232Z,22.06
2022-08-05T04:20:26.221Z,22.07
2022-08-05T04:22:09.221Z,22.08
2022-08-05T04:22:27.217Z,22.04
2022-08-05T04:24:04.909Z,22.04
2022-08-05T04:24:27.705Z,21.97
2022-08-05T04:25:56.639Z,21.97
2022-08-05T04:26:27.133Z,21.97
2022-08-05T04:27:41.505Z,21.97
2022-08-05T04:28:30.697Z,21.99
2022-08-05T04:29:27.277Z,21.97
2022-08-05T04:30:26.420Z,21.96
2022-08-05T04:31:27.572Z,21.97
2022-08-05T04:32:31.282Z,21.96
2022-08-05T04:33:54.743Z,21.94
2022-08-05T04:34:33.643Z,21.92
2022-08-05T04:35:27.023Z,21.91
2022-08-05T04:36:44.960Z,21.94
2022-08-05T04:38:00.898Z,21.97
2022-08-05T04:38:39.787Z,21.97
2022-08-05T04:39:27.365Z,21.94
2022-08-05T04:40:25.974Z,21.92
2022-08-05T04:41:36.687Z,21.94
2022-08-05T04:42:26.933Z,21.94
2022-08-05T04:43:33.217Z,21.94
2022-08-05T04:44:30.059Z,21.94
2022-08-05T04:45:48.408Z,21.96
2022-08-05T04:46:27.936Z,21.99
2022-08-05T04:47:26.185Z,22.03
2022-08-05T04:48:27.287Z,22.07
2022-08-05T04:49:38.644Z,22.08
2022-08-05T04:50:37.158Z,22.14
2022-08-05T04:51:30.632Z,22.14
2022-08-05T04:52:27.449Z,22.14
2022-08-05T04:53:25.792Z,22.14
2022-08-05T04:54:25.782Z,22.12
2022-08-05T04:56:15.290Z,22.15
2022-08-05T04:56:32.980Z,22.12
2022-08-05T04:57:28.996Z,22.16
2022-08-05T04:58:25.711Z,22.31
2022-08-05T04:59:38.361Z,22.43
2022-08-05T05:00:26.692Z,22.51
2022-08-05T05:02:04.011Z,22.65
2022-08-05T05:02:36.432Z,22.68
2022-08-05T05:03:26.656Z,22.73
2022-08-05T05:04:26.652Z,22.73
2022-08-05T05:05:28.967Z,22.68
2022-08-05T05:06:36.550Z,22.61
2022-08-05T05:07:29.373Z,22.56
2022-08-05T05:08:30.410Z,22.61
2022-08-05T05:09:25.609Z,22.67
2022-08-05T05:10:25.574Z,22.78
2022-08-05T05:11:25.550Z,22.91
2022-08-05T05:12:27.440Z,22.89
2022-08-05T05:13:25.535Z,22.95
2022-08-05T05:14:27.863Z,23.04
2022-08-05T05:15:57.489Z,23.08
2022-08-05T05:16:30.385Z,23.17
2022-08-05T05:17:55.787Z,23.25
2022-08-05T05:18:28.317Z,23.34
2022-08-05T05:19:27.432Z,23.42
2022-08-05T05:20:28.451Z,23.51
2022-08-05T05:21:27.077Z,23.58
2022-08-05T05:22:26.107Z,23.64
2022-08-05T05:23:25.403Z,23.67
2022-08-05T05:24:35.795Z,23.69
2022-08-05T05:25:40.592Z,23.71
2022-08-05T05:26:28.525Z,23.76
2022-08-05T05:27:45.867Z,23.81
2022-08-05T05:28:26.310Z,23.85
2022-08-05T05:29:25.329Z,23.89
2022-08-05T05:30:29.226Z,23.94
2022-08-05T05:31:25.287Z,23.91
2022-08-05T05:32:25.269Z,23.91
2022-08-05T05:33:25.258Z,23.85
2022-08-05T05:34:26.715Z,23.77
2022-08-05T05:35:25.256Z,23.69
2022-08-05T05:36:25.209Z,23.63
2022-08-05T05:37:29.163Z,23.56
2022-08-05T05:38:27.229Z,23.49
2022-08-05T05:39:26.442Z,23.47
2022-08-05T05:40:26.251Z,23.48
2022-08-05T05:41:25.270Z,23.47
2022-08-05T05:42:26.130Z,23.39
2022-08-05T05:43:57.193Z,23.26
2022-08-05T05:44:37.794Z,23.13
2022-08-05T05:45:26.111Z,23.04
2022-08-05T05:46:25.087Z,22.93
2022-08-05T05:47:30.596Z,22.91
2022-08-05T05:48:27.733Z,22.88
2022-08-05T05:49:25.062Z,22.80
2022-08-05T05:50:25.020Z,22.77
2022-08-05T05:51:25.606Z,22.78
2022-08-05T05:52:28.746Z,22.88
2022-08-05T05:53:25.991Z,22.98
2022-08-05T05:54:49.875Z,23.04
2022-08-05T05:55:51.812Z,23.13
2022-08-05T05:56:32.271Z,23.18
2022-08-05T05:57:26.164Z,23.23
2022-08-05T05:58:32.046Z,23.23
2022-08-05T05:59:25.921Z,23.21
2022-08-05T06:00:27.794Z,23.23
2022-08-05T06:01:27.560Z,23.21
2022-08-05T06:02:37.433Z,23.17
2022-08-05T06:03:54.171Z,23.17
2022-08-05T06:04:25.934Z,23.14
2022-08-05T06:05:24.860Z,23.13
2022-08-05T06:06:24.800Z,23.16
2022-08-05T06:07:41.138Z,23.18
2022-08-05T06:08:32.253Z,23.20
2022-08-05T06:09:52.647Z,23.23
2022-08-05T06:10:25.773Z,23.18
2022-08-05T06:11:24.752Z,23.14
2022-08-05T06:12:24.732Z,23.08
2022-08-05T06:13:24.722Z,23.07
2022-08-05T06:14:24.692Z,23.02
2022-08-05T06:15:24.723Z,22.95
2022-08-05T06:16:29.706Z,22.92
2022-08-05T06:17:30.829Z,22.95
2022-08-05T06:18:31.021Z,22.92
2022-08-05T06:19:26.101Z,22.89
2022-08-05T06:20:25.663Z,22.89
2022-08-05T06:21:24.623Z,22.89
2022-08-05T06:22:25.669Z,22.91
2022-08-05T06:23:24.604Z,22.91
2022-08-05T06:24:27.186Z,22.92
2022-08-05T06:26:12.237Z,22.96
2022-08-05T06:26:25.555Z,23.02
2022-08-05T06:28:08.962Z,23.07
2022-08-05T06:28:28.509Z,23.13
2022-08-05T06:29:46.866Z,23.11
2022-08-05T06:30:25.496Z,23.14
2022-08-05T06:31:30.491Z,23.23
2022-08-05T06:32:29.265Z,23.33
2022-08-05T06:33:55.008Z,23.42
2022-08-05T06:34:27.763Z,23.48
2022-08-05T06:36:03.074Z,23.56
2022-08-05T06:36:25.822Z,23.66
2022-08-05T06:37:57.020Z,23.70
2022-08-05T06:38:35.980Z,23.71
2022-08-05T06:39:27.839Z,23.70
2022-08-05T06:40:27.672Z,23.67
2022-08-05T06:41:24.365Z,23.69
2022-08-05T06:42:24.338Z,23.73
2022-08-05T06:43:58.727Z,23.67
2022-08-05T06:44:25.312Z,23.59
2022-08-05T06:45:44.440Z,23.56
2022-08-05T06:46:29.700Z,23.62
2022-08-05T06:47:30.000Z,23.69
2022-08-05T06:48:53.550Z,23.73
2022-08-05T06:50:00.618Z,23.70
2022-08-05T06:50:25.249Z,23.67
2022-08-05T06:51:30.071Z,23.67
2022-08-05T06:52:38.164Z,23.69
2022-08-05T06:53:28.528Z,23.71
2022-08-05T06:54:25.847Z,23.73
2022-08-05T06:55:24.190Z,23.71
2022-08-05T06:56:26.403Z,23.67
2022-08-05T06:57:57.716Z,23.66
2022-08-05T06:58:29.980Z,23.64
2022-08-05T06:59:25.112Z,23.64
2022-08-05T07:00:24.993Z,23.67
2022-08-05T07:01:27.748Z,23.70
2022-08-05T07:02:25.074Z,23.62
2022-08-05T07:03:27.962Z,23.54
2022-08-05T07:04:25.078Z,23.54
2022-08-05T07:05:37.480Z,23.51
2022-08-05T07:06:25.025Z,23.42
2022-08-05T07:07:43.074Z,23.32
2022-08-05T07:08:25.174Z,23.37
2022-08-05T07:09:24.968Z,23.40
2022-08-05T07:10:23.983Z,23.45
2022-08-05T07:11:25.241Z,23.52
2022-08-05T07:12:23.943Z,23.55
2022-08-05T07:13:57.211Z,23.54
2022-08-05T07:14:30.052Z,23.49
2022-08-05T07:15:34.561Z,23.42
2022-08-05T07:17:59.793Z,23.39
2022-08-05T07:18:01.694Z,23.39
2022-08-05T07:18:29.324Z,23.37
2022-08-05T07:20:10.537Z,23.40
2022-08-05T07:20:33.831Z,23.44
2022-08-05T07:21:25.776Z,23.47
2022-08-05T07:22:28.233Z,23.47
2022-08-05T07:23:26.288Z,23.47
2022-08-05T07:24:23.795Z,23.48
2022-08-05T07:25:56.113Z,23.51
2022-08-05T07:26:24.911Z,23.48
2022-08-05T07:27:27.342Z,23.48
2022-08-05T07:28:23.736Z,23.45
2022-08-05T07:29:25.317Z,23.47
2022-08-05T07:30:32.077Z,23.48
2022-08-05T07:31:54.037Z,23.52
2022-08-05T07:32:26.316Z,23.55
2022-08-05T07:33:36.431Z,23.63
2022-08-05T07:34:28.609Z,23.67
2022-08-05T07:36:03.568Z,23.73
2022-08-05T07:36:24.933Z,23.81
2022-08-05T07:37:23.860Z,23.88
2022-08-05T07:38:32.071Z,23.89
2022-08-05T07:40:04.088Z,23.91
2022-08-05T07:40:32.093Z,24.00
2022-08-05T07:42:13.252Z,24.07
2022-08-05T07:42:34.075Z,24.10
2022-08-05T07:43:24.568Z,24.10
2022-08-05T07:44:23.588Z,23.99
2022-08-05T07:45:56.394Z,23.82
2022-08-05T07:46:25.980Z,23.71
2022-08-05T07:47:25.887Z,23.67
2022-08-05T07:49:00.552Z,23.67
2022-08-05T07:49:24.638Z,23.70
2022-08-05T07:50:28.788Z,23.74
2022-08-05T07:51:36.994Z,23.81
2022-08-05T07:52:24.415Z,23.88
2022-08-05T07:53:23.420Z,23.94
2022-08-05T07:54:26.521Z,23.99
2022-08-05T07:56:04.859Z,23.96
2022-08-05T07:56:59.970Z,23.94
2022-08-05T07:57:51.354Z,23.96
2022-08-05T07:58:58.644Z,24.00
2022-08-05T07:59:39.038Z,24.04
2022-08-05T08:00:24.341Z,24.09
2022-08-05T08:01:23.340Z,24.16
2022-08-05T08:02:26.848Z,24.19
2022-08-05T08:03:24.271Z,24.22
2022-08-05T08:04:38.076Z,24.22
2022-08-05T08:05:24.270Z,24.24
2022-08-05T08:06:23.221Z,24.24
2022-08-05T08:07:24.701Z,24.25
2022-08-05T08:08:23.212Z,24.26
2022-08-05T08:09:23.184Z,24.26
2022-08-05T08:10:23.529Z,24.28
2022-08-05T08:11:27.776Z,24.29
2022-08-05T08:12:35.082Z,24.28
2022-08-05T08:13:29.035Z,24.28
2022-08-05T08:14:24.117Z,24.26
2022-08-05T08:16:33.927Z,24.18
2022-08-05T08:16:49.828Z,24.16
2022-08-05T08:17:24.435Z,24.14
2022-08-05T08:18:23.063Z,24.13
2022-08-05T08:20:22.334Z,24.10
2022-08-05T08:20:59.872Z,24.07
2022-08-05T08:21:24.055Z,24.07
2022-08-05T08:22:23.008Z,24.10
2022-08-05T08:24:03.013Z,24.13
2022-08-05T08:24:24.017Z,24.18
2022-08-05T08:25:27.006Z,24.21
2022-08-05T08:26:26.829Z,24.22
2022-08-05T08:27:24.099Z,24.24
2022-08-05T08:28:36.259Z,24.24
2022-08-05T08:30:03.842Z,24.28
2022-08-05T08:30:32.446Z,24.29
2022-08-05T08:31:25.104Z,24.31
2022-08-05T08:32:28.130Z,24.29
2022-08-05T08:33:24.145Z,24.26
2022-08-05T08:34:30.341Z,24.25
2022-08-05T08:35:26.694Z,24.26
2022-08-05T08:36:38.305Z,24.26
2022-08-05T08:37:28.000Z,24.29
2022-08-05T08:38:32.132Z,24.28
2022-08-05T08:39:23.952Z,24.28
2022-08-05T08:40:22.797Z,24.28
2022-08-05T08:41:26.011Z,24.28
2022-08-05T08:42:34.318Z,24.31
2022-08-05T08:45:17.759Z,24.29
2022-08-05T08:45:18.980Z,24.28
2022-08-05T08:45:27.194Z,24.25
2022-08-05T08:46:23.718Z,24.29
2022-08-05T08:48:07.750Z,24.34
2022-08-05T08:49:02.474Z,24.37
2022-08-05T08:50:14.250Z,24.43
2022-08-05T08:50:52.633Z,24.41
2022-08-05T08:52:03.336Z,24.34
2022-08-05T08:52:24.130Z,24.36
2022-08-05T08:53:22.616Z,24.40
2022-08-05T08:54:22.647Z,24.47
2022-08-05T08:56:02.137Z,24.47
2022-08-05T08:56:23.581Z,24.47
2022-08-05T08:57:22.682Z,24.48
2022-08-05T08:58:36.976Z,24.55
2022-08-05T08:59:23.530Z,24.62
2022-08-05T09:00:22.537Z,24.68
2022-08-05T09:01:22.579Z,24.62
2022-08-05T09:02:24.193Z,24.63
2022-08-05T09:03:22.511Z,24.56
2022-08-05T09:04:22.454Z,24.55
2022-08-05T09:05:38.540Z,24.59
2022-08-05T09:06:27.839Z,24.61
2022-08-05T09:07:28.359Z,24.62
2022-08-05T09:08:27.333Z,24.66
2022-08-05T09:09:22.401Z,24.75
2022-08-05T09:10:22.413Z,24.77
2022-08-05T09:11:53.790Z,24.81
2022-08-05T09:12:30.124Z,24.82
2022-08-05T09:13:23.604Z,24.84
2022-08-05T09:14:59.091Z,24.88
2022-08-05T09:15:23.471Z,24.89
2022-08-05T09:16:22.323Z,24.96
2022-08-05T09:17:40.558Z,24.96
2022-08-05T09:18:23.314Z,24.93
2022-08-05T09:19:27.739Z,24.86
2022-08-05T09:20:37.397Z,24.79
2022-08-05T09:22:22.971Z,24.79
2022-08-05T09:22:30.793Z,24.74
2022-08-05T09:23:23.536Z,24.63
2022-08-05T09:24:22.173Z,24.55
2022-08-05T09:25:24.524Z,24.55
2022-08-05T09:26:23.165Z,24.58
2022-08-05T09:28:05.291Z,24.58
2022-08-05T09:28:23.161Z,24.59
2022-08-05T09:29:24.054Z,24.61
2022-08-05T09:30:23.302Z,24.59
2022-08-05T09:32:40.284Z,24.62
2022-08-05T09:32:42.787Z,24.63
2022-08-05T09:33:23.093Z,24.65
2022-08-05T09:34:23.054Z,24.71
2022-08-05T09:35:27.311Z,24.74
2022-08-05T09:36:27.612Z,24.75
2022-08-05T09:38:12.105Z,24.75
2022-08-05T09:38:27.322Z,24.71
2022-08-05T09:39:22.455Z,24.65
2022-08-05T09:40:22.029Z,24.59
2022-08-05T09:41:21.955Z,24.53
2022-08-05T09:42:24.309Z,24.41
2022-08-05T09:43:22.915Z,24.34
2022-08-05T09:44:21.926Z,24.32
2022-08-05T09:46:06.960Z,24.32
2022-08-05T09:46:27.949Z,24.37
2022-08-05T09:47:22.903Z,24.38
2022-08-05T09:48:22.019Z,24.41
2022-08-05T09:49:22.988Z,24.32
2022-08-05T09:50:38.253Z,24.34
2022-08-05T09:51:22.857Z,24.38
2022-08-05T09:52:22.025Z,24.40
2022-08-05T09:53:25.887Z,24.40
2022-08-05T09:54:29.374Z,24.38
2022-08-05T09:55:57.297Z,24.36
2022-08-05T09:56:22.829Z,24.36
2022-08-05T09:57:23.615Z,24.31
2022-08-05T09:58:21.751Z,24.24
2022-08-05T09:59:21.775Z,24.16
2022-08-05T10:00:21.870Z,24.06
2022-08-05T10:01:32.077Z,24.06
2022-08-05T10:02:22.977Z,24.04
2022-08-05T10:03:21.682Z,24.00
2022-08-05T10:04:29.307Z,23.99
2022-08-05T10:05:22.733Z,24.00
2022-08-05T10:06:21.697Z,24.00
2022-08-05T10:08:11.186Z,23.99
2022-08-05T10:08:37.479Z,23.95
2022-08-05T10:09:27.650Z,23.99
2022-08-05T10:10:28.260Z,24.00
2022-08-05T10:11:22.883Z,24.06
2022-08-05T10:12:31.570Z,24.09
2022-08-05T10:13:22.552Z,24.09
2022-08-05T10:14:21.636Z,24.03
2022-08-05T10:15:21.747Z,23.96
2022-08-05T10:16:21.544Z,23.91
2022-08-05T10:17:39.918Z,23.91
2022-08-05T10:18:22.482Z,23.92
2022-08-05T10:19:23.870Z,23.95
2022-08-05T10:20:22.488Z,23.92
2022-08-05T10:21:22.946Z,23.96
2022-08-05T10:22:29.743Z,24.01
2022-08-05T10:23:55.418Z,23.99
2022-08-05T10:24:24.980Z,23.96
2022-08-05T10:25:21.431Z,23.99
2022-08-05T10:26:24.406Z,23.99
2022-08-05T10:27:26.276Z,24.00
2022-08-05T10:28:29.688Z,24.06
2022-08-05T10:29:24.193Z,24.07
2022-08-05T10:31:19.891Z,24.06
2022-08-05T10:32:51.963Z,24.10
2022-08-05T10:32:53.997Z,24.07
2022-08-05T10:33:22.545Z,24.11
2022-08-05T10:34:25.580Z,24.14
2022-08-05T10:35:21.255Z,24.19
2022-08-05T10:36:23.559Z,24.18
2022-08-05T10:37:21.242Z,24.19
2022-08-05T10:38:21.245Z,24.22
2022-08-05T10:39:25.209Z,24.26
2022-08-05T10:40:27.827Z,24.11
2022-08-05T10:41:23.658Z,23.99
2022-08-05T10:42:32.477Z,23.82
2022-08-05T10:43:23.221Z,23.71
2022-08-05T10:44:22.148Z,23.70
2022-08-05T10:45:23.861Z,23.67
2022-08-05T10:46:23.916Z,23.69
2022-08-05T10:47:26.878Z,23.64
2022-08-05T10:48:31.321Z,23.52
2022-08-05T10:49:26.763Z,23.48
2022-08-05T10:50:36.918Z,23.49
2022-08-05T10:51:23.181Z,23.52
2022-08-05T10:52:22.149Z,23.34
2022-08-05T10:53:21.035Z,23.28
2022-08-05T10:54:28.702Z,23.14
2022-08-05T10:55:22.026Z,23.10
2022-08-05T10:56:25.386Z,23.11
2022-08-05T10:57:21.000Z,23.14
2022-08-05T10:58:21.004Z,23.21
2022-08-05T11:00:03.223Z,23.32
2022-08-05T11:00:22.831Z,23.33
2022-08-05T11:01:28.487Z,23.28
2022-08-05T11:02:38.021Z,23.32
2022-08-05T11:03:25.508Z,23.36
2022-08-05T11:04:21.437Z,23.26
2022-08-05T11:05:20.859Z,23.25
2022-08-05T11:06:20.910Z,23.25
2022-08-05T11:07:33.125Z,23.28
2022-08-05T11:08:36.803Z,23.28
2022-08-05T11:09:32.285Z,23.33
2022-08-05T11:10:21.851Z,23.36
2022-08-05T11:11:21.190Z,23.47
2022-08-05T11:12:20.942Z,23.54
2022-08-05T11:13:20.752Z,23.55
2022-08-05T11:14:28.693Z,23.58
2022-08-05T11:15:21.834Z,23.62
2022-08-05T11:16:20.710Z,23.71
2022-08-05T11:17:20.723Z,23.76
2022-08-05T11:18:21.683Z,23.76
2022-08-05T11:20:16.492Z,23.70
2022-08-05T11:20:22.229Z,23.71
2022-08-05T11:21:20.656Z,23.74
2022-08-05T11:22:20.673Z,23.71
2022-08-05T11:23:20.636Z,23.81
2022-08-05T11:24:30.368Z,23.86
2022-08-05T11:26:04.311Z,23.89
2022-08-05T11:26:28.439Z,23.92
2022-08-05T11:27:21.773Z,23.95
2022-08-05T11:28:20.552Z,23.99
2022-08-05T11:29:20.534Z,24.04
2022-08-05T11:30:20.544Z,24.10
2022-08-05T11:31:57.147Z,24.14
2022-08-05T11:32:21.523Z,24.19
2022-08-05T11:33:21.065Z,24.26
2022-08-05T11:34:22.778Z,24.28
2022-08-05T11:35:21.465Z,24.41
2022-08-05T11:36:34.662Z,24.50
2022-08-05T11:38:28.421Z,24.58
2022-08-05T11:38:30.622Z,24.51
2022-08-05T11:39:21.470Z,24.53
2022-08-05T11:40:21.396Z,24.61
2022-08-05T11:41:58.205Z,24.65
2022-08-05T11:42:21.367Z,24.66
2022-08-05T11:43:21.353Z,24.74
2022-08-05T11:44:31.197Z,24.71
2022-08-05T11:45:26.849Z,24.82
2022-08-05T11:46:32.900Z,24.92
2022-08-05T11:47:22.077Z,24.92
2022-08-05T11:48:21.277Z,24.93
2022-08-05T11:49:20.267Z,25.01
2022-08-05T11:50:20.267Z,25.04
2022-08-05T11:51:44.486Z,25.12
2022-08-05T11:52:22.979Z,25.16
2022-08-05T11:53:21.236Z,25.18
2022-08-05T11:54:20.298Z,25.18
2022-08-05T11:55:20.218Z,25.25
2022-08-05T11:56:20.208Z,25.30
2022-08-05T11:57:25.820Z,25.36
2022-08-05T11:58:21.378Z,25.37
2022-08-05T11:59:21.234Z,25.30
2022-08-05T12:00:20.139Z,25.18
2022-08-05T12:01:20.146Z,25.09
2022-08-05T12:02:23.985Z,24.93
2022-08-05T12:03:28.843Z,24.84
2022-08-05T12:04:21.081Z,24.79
2022-08-05T12:05:20.070Z,24.66
2022-08-05T12:06:20.056Z,24.53
2022-08-05T12:08:09.360Z,24.47
2022-08-05T12:08:21.031Z,24.40
2022-08-05T12:09:20.248Z,24.32
2022-08-05T12:10:20.001Z,24.29
2022-08-05T12:11:20.489Z,24.29
2022-08-05T12:12:20.120Z,24.29
2022-08-05T12:13:48.360Z,24.31
2022-08-05T12:14:21.002Z,24.26
2022-08-05T12:15:19.969Z,24.18
2022-08-05T12:16:26.936Z,24.06
2022-08-05T12:18:00.741Z,23.94
2022-08-05T12:18:24.330Z,23.77
2022-08-05T12:20:25.444Z,23.70
2022-08-05T12:20:28.849Z,23.64
2022-08-05T12:21:21.021Z,23.62
2022-08-05T12:22:20.099Z,23.51
2022-08-05T12:23:19.833Z,23.51
2022-08-05T12:24:19.831Z,23.58
2022-08-05T12:25:19.825Z,23.66
2022-08-05T12:26:19.834Z,23.64
2022-08-05T12:27:21.608Z,23.66
2022-08-05T12:28:20.765Z,23.69
2022-08-05T12:29:23.067Z,23.71
2022-08-05T12:30:19.760Z,23.69
2022-08-05T12:31:32.654Z,23.63
2022-08-05T12:32:20.735Z,23.62
2022-08-05T12:33:27.891Z,23.55
2022-08-05T12:34:23.507Z,23.62
2022-08-05T12:35:21.745Z,23.64
2022-08-05T12:36:19.701Z,23.59
2022-08-05T12:37:21.747Z,23.58
2022-08-05T12:38:22.282Z,23.45
2022-08-05T12:39:20.688Z,23.49
2022-08-05T12:40:26.351Z,23.63
2022-08-05T12:41:20.596Z,23.70
2022-08-05T12:42:20.605Z,23.67
2022-08-05T12:43:21.001Z,23.69
2022-08-05T12:44:32.801Z,23.82
2022-08-05T12:45:20.547Z,23.92
2022-08-05T12:46:22.439Z,23.96
2022-08-05T12:47:20.562Z,24.00
2022-08-05T12:48:27.374Z,23.96
2022-08-05T12:49:20.477Z,24.01
2022-08-05T12:50:20.478Z,24.07
2022-08-05T12:52:11.074Z,24.03
2022-08-05T12:52:25.261Z,24.00